sensor_id;sensor_type;location;lat;lon;timestamp;P1;durP1;ratioP1;P2;durP2;ratioP2
30398;SDS011;17195;50.838;7.214;2024-03-06T00:00:34;37.50;;;22.05;;
30398;SDS011;17195;50.838;7.214;2024-03-06T00:03:00;37.05;;;22.65;;
30398;SDS011;17195;50.838;7.214;2024-03-06T00:05:25;38.35;;;22.65;;
30398;SDS011;17195;50.838;7.214;2024-03-06T00:07:51;33.55;;;22.17;;
30398;SDS011;17195;50.838;7.214;2024-03-06T00:10:16;33.58;;;21.67;;
30398;SDS011;17195;50.838;7.214;2024-03-06T00:12:42;39.80;;;21.63;;
30398;SDS011;17195;50.838;7.214;2024-03-06T00:15:07;38.47;;;22.85;;
30398;SDS011;17195;50.838;7.214;2024-03-06T00:17:33;36.28;;;21.73;;
30398;SDS011;17195;50.838;7.214;2024-03-06T00:19:59;38.53;;;22.15;;
30398;SDS011;17195;50.838;7.214;2024-03-06T00:22:24;37.45;;;24.08;;
30398;SDS011;17195;50.838;7.214;2024-03-06T00:24:51;34.38;;;21.40;;
30398;SDS011;17195;50.838;7.214;2024-03-06T00:27:16;35.55;;;22.67;;
30398;SDS011;17195;50.838;7.214;2024-03-06T00:29:42;32.63;;;21.50;;
30398;SDS011;17195;50.838;7.214;2024-03-06T00:32:07;33.00;;;21.35;;
30398;SDS011;17195;50.838;7.214;2024-03-06T00:34:33;34.42;;;21.48;;
30398;SDS011;17195;50.838;7.214;2024-03-06T00:36:58;35.88;;;21.30;;
30398;SDS011;17195;50.838;7.214;2024-03-06T00:39:24;33.85;;;20.95;;
30398;SDS011;17195;50.838;7.214;2024-03-06T00:41:50;33.00;;;20.38;;
30398;SDS011;17195;50.838;7.214;2024-03-06T00:44:15;33.85;;;20.52;;
30398;SDS011;17195;50.838;7.214;2024-03-06T00:46:42;34.58;;;20.90;;
30398;SDS011;17195;50.838;7.214;2024-03-06T00:49:07;37.60;;;22.25;;
30398;SDS011;17195;50.838;7.214;2024-03-06T00:51:33;33.40;;;21.23;;
30398;SDS011;17195;50.838;7.214;2024-03-06T00:54:01;32.10;;;20.23;;
30398;SDS011;17195;50.838;7.214;2024-03-06T00:56:27;34.92;;;21.77;;
30398;SDS011;17195;50.838;7.214;2024-03-06T00:58:53;37.28;;;22.85;;
30398;SDS011;17195;50.838;7.214;2024-03-06T01:01:18;32.55;;;20.90;;
30398;SDS011;17195;50.838;7.214;2024-03-06T01:03:44;33.63;;;21.25;;
30398;SDS011;17195;50.838;7.214;2024-03-06T01:06:09;34.60;;;21.05;;
30398;SDS011;17195;50.838;7.214;2024-03-06T01:08:35;31.02;;;19.45;;
30398;SDS011;17195;50.838;7.214;2024-03-06T01:11:01;28.23;;;18.70;;
30398;SDS011;17195;50.838;7.214;2024-03-06T01:13:28;32.22;;;20.38;;
30398;SDS011;17195;50.838;7.214;2024-03-06T01:15:54;34.17;;;19.90;;
30398;SDS011;17195;50.838;7.214;2024-03-06T01:18:20;27.88;;;17.40;;
30398;SDS011;17195;50.838;7.214;2024-03-06T01:20:45;31.80;;;20.00;;
30398;SDS011;17195;50.838;7.214;2024-03-06T01:23:11;31.10;;;20.27;;
30398;SDS011;17195;50.838;7.214;2024-03-06T01:25:36;30.25;;;19.27;;
30398;SDS011;17195;50.838;7.214;2024-03-06T01:28:02;30.10;;;18.90;;
30398;SDS011;17195;50.838;7.214;2024-03-06T01:30:27;29.13;;;18.77;;
30398;SDS011;17195;50.838;7.214;2024-03-06T01:32:53;31.55;;;18.65;;
30398;SDS011;17195;50.838;7.214;2024-03-06T01:35:19;26.92;;;17.58;;
30398;SDS011;17195;50.838;7.214;2024-03-06T01:37:44;29.02;;;18.25;;
30398;SDS011;17195;50.838;7.214;2024-03-06T01:40:10;28.42;;;18.33;;
30398;SDS011;17195;50.838;7.214;2024-03-06T01:42:37;30.67;;;19.13;;
30398;SDS011;17195;50.838;7.214;2024-03-06T01:45:03;30.80;;;19.63;;
30398;SDS011;17195;50.838;7.214;2024-03-06T01:47:29;31.90;;;19.33;;
30398;SDS011;17195;50.838;7.214;2024-03-06T01:49:54;31.58;;;19.63;;
30398;SDS011;17195;50.838;7.214;2024-03-06T01:52:20;34.42;;;19.55;;
30398;SDS011;17195;50.838;7.214;2024-03-06T01:54:47;32.28;;;20.23;;
30398;SDS011;17195;50.838;7.214;2024-03-06T01:57:14;30.17;;;19.50;;
30398;SDS011;17195;50.838;7.214;2024-03-06T01:59:42;31.75;;;19.80;;
30398;SDS011;17195;50.838;7.214;2024-03-06T02:02:08;33.33;;;19.27;;
30398;SDS011;17195;50.838;7.214;2024-03-06T02:04:36;30.30;;;20.13;;
30398;SDS011;17195;50.838;7.214;2024-03-06T02:07:02;29.77;;;19.23;;
30398;SDS011;17195;50.838;7.214;2024-03-06T02:09:28;32.80;;;18.75;;
30398;SDS011;17195;50.838;7.214;2024-03-06T02:11:53;30.25;;;19.42;;
30398;SDS011;17195;50.838;7.214;2024-03-06T02:14:19;29.65;;;19.70;;
30398;SDS011;17195;50.838;7.214;2024-03-06T02:16:44;32.03;;;19.20;;
30398;SDS011;17195;50.838;7.214;2024-03-06T02:19:10;30.33;;;19.10;;
30398;SDS011;17195;50.838;7.214;2024-03-06T02:21:35;30.27;;;18.42;;
30398;SDS011;17195;50.838;7.214;2024-03-06T02:24:01;31.83;;;18.65;;
30398;SDS011;17195;50.838;7.214;2024-03-06T02:26:27;32.60;;;18.80;;
30398;SDS011;17195;50.838;7.214;2024-03-06T02:28:53;29.33;;;19.30;;
30398;SDS011;17195;50.838;7.214;2024-03-06T02:31:20;31.75;;;19.45;;
30398;SDS011;17195;50.838;7.214;2024-03-06T02:33:46;29.27;;;18.95;;
30398;SDS011;17195;50.838;7.214;2024-03-06T02:36:13;29.65;;;17.80;;
30398;SDS011;17195;50.838;7.214;2024-03-06T02:38:39;28.77;;;18.48;;
30398;SDS011;17195;50.838;7.214;2024-03-06T02:41:05;28.90;;;18.85;;
30398;SDS011;17195;50.838;7.214;2024-03-06T02:43:31;32.30;;;18.70;;
30398;SDS011;17195;50.838;7.214;2024-03-06T02:45:57;31.10;;;19.33;;
30398;SDS011;17195;50.838;7.214;2024-03-06T02:48:23;31.73;;;18.88;;
30398;SDS011;17195;50.838;7.214;2024-03-06T02:50:49;30.67;;;18.45;;
30398;SDS011;17195;50.838;7.214;2024-03-06T02:53:14;29.38;;;18.90;;
30398;SDS011;17195;50.838;7.214;2024-03-06T02:55:40;33.83;;;19.67;;
30398;SDS011;17195;50.838;7.214;2024-03-06T02:58:05;29.80;;;19.15;;
30398;SDS011;17195;50.838;7.214;2024-03-06T03:00:31;27.70;;;18.55;;
30398;SDS011;17195;50.838;7.214;2024-03-06T03:02:57;30.45;;;18.92;;
30398;SDS011;17195;50.838;7.214;2024-03-06T03:05:22;28.67;;;17.92;;
30398;SDS011;17195;50.838;7.214;2024-03-06T03:07:48;28.83;;;17.52;;
30398;SDS011;17195;50.838;7.214;2024-03-06T03:10:14;27.00;;;17.08;;
30398;SDS011;17195;50.838;7.214;2024-03-06T03:12:40;30.08;;;17.35;;
30398;SDS011;17195;50.838;7.214;2024-03-06T03:15:06;27.65;;;17.27;;
30398;SDS011;17195;50.838;7.214;2024-03-06T03:17:32;26.33;;;16.95;;
30398;SDS011;17195;50.838;7.214;2024-03-06T03:19:58;28.13;;;16.85;;
30398;SDS011;17195;50.838;7.214;2024-03-06T03:22:24;27.05;;;16.95;;
30398;SDS011;17195;50.838;7.214;2024-03-06T03:24:50;29.48;;;17.83;;
30398;SDS011;17195;50.838;7.214;2024-03-06T03:27:15;30.65;;;18.50;;
30398;SDS011;17195;50.838;7.214;2024-03-06T03:29:41;28.45;;;17.17;;
30398;SDS011;17195;50.838;7.214;2024-03-06T03:32:07;28.98;;;18.05;;
30398;SDS011;17195;50.838;7.214;2024-03-06T03:34:33;26.33;;;17.00;;
30398;SDS011;17195;50.838;7.214;2024-03-06T03:36:59;27.08;;;16.95;;
30398;SDS011;17195;50.838;7.214;2024-03-06T03:39:25;26.23;;;16.63;;
30398;SDS011;17195;50.838;7.214;2024-03-06T03:41:52;27.17;;;17.02;;
30398;SDS011;17195;50.838;7.214;2024-03-06T03:44:17;26.92;;;15.77;;
30398;SDS011;17195;50.838;7.214;2024-03-06T03:46:43;26.58;;;16.88;;
30398;SDS011;17195;50.838;7.214;2024-03-06T03:49:09;29.40;;;17.05;;
30398;SDS011;17195;50.838;7.214;2024-03-06T03:51:35;28.10;;;17.58;;
30398;SDS011;17195;50.838;7.214;2024-03-06T03:54:02;30.10;;;17.38;;
30398;SDS011;17195;50.838;7.214;2024-03-06T03:56:28;30.95;;;18.17;;
30398;SDS011;17195;50.838;7.214;2024-03-06T03:58:54;27.60;;;17.30;;
30398;SDS011;17195;50.838;7.214;2024-03-06T04:01:20;32.65;;;18.95;;
30398;SDS011;17195;50.838;7.214;2024-03-06T04:03:46;30.92;;;18.45;;
30398;SDS011;17195;50.838;7.214;2024-03-06T04:06:13;35.25;;;20.60;;
30398;SDS011;17195;50.838;7.214;2024-03-06T04:08:38;49.65;;;25.95;;
30398;SDS011;17195;50.838;7.214;2024-03-06T04:11:04;37.95;;;21.85;;
30398;SDS011;17195;50.838;7.214;2024-03-06T04:13:29;40.35;;;23.35;;
30398;SDS011;17195;50.838;7.214;2024-03-06T04:15:55;41.50;;;22.75;;
30398;SDS011;17195;50.838;7.214;2024-03-06T04:18:21;35.17;;;21.33;;
30398;SDS011;17195;50.838;7.214;2024-03-06T04:20:46;35.08;;;19.83;;
30398;SDS011;17195;50.838;7.214;2024-03-06T04:23:12;30.60;;;19.13;;
30398;SDS011;17195;50.838;7.214;2024-03-06T04:25:37;34.58;;;18.73;;
30398;SDS011;17195;50.838;7.214;2024-03-06T04:28:04;25.75;;;17.70;;
30398;SDS011;17195;50.838;7.214;2024-03-06T04:30:32;25.05;;;15.88;;
30398;SDS011;17195;50.838;7.214;2024-03-06T04:32:58;26.77;;;17.67;;
30398;SDS011;17195;50.838;7.214;2024-03-06T04:35:24;25.48;;;16.13;;
30398;SDS011;17195;50.838;7.214;2024-03-06T04:37:50;24.92;;;17.00;;
30398;SDS011;17195;50.838;7.214;2024-03-06T04:40:15;23.90;;;15.90;;
30398;SDS011;17195;50.838;7.214;2024-03-06T04:42:44;26.98;;;16.88;;
30398;SDS011;17195;50.838;7.214;2024-03-06T04:45:12;25.00;;;16.02;;
30398;SDS011;17195;50.838;7.214;2024-03-06T04:47:40;26.40;;;16.60;;
30398;SDS011;17195;50.838;7.214;2024-03-06T04:50:09;29.75;;;19.27;;
30398;SDS011;17195;50.838;7.214;2024-03-06T04:52:36;32.30;;;20.05;;
30398;SDS011;17195;50.838;7.214;2024-03-06T04:55:02;24.58;;;16.15;;
30398;SDS011;17195;50.838;7.214;2024-03-06T04:57:28;23.05;;;15.30;;
30398;SDS011;17195;50.838;7.214;2024-03-06T04:59:53;21.50;;;15.70;;
30398;SDS011;17195;50.838;7.214;2024-03-06T05:02:20;21.05;;;14.43;;
30398;SDS011;17195;50.838;7.214;2024-03-06T05:04:45;20.75;;;14.90;;
30398;SDS011;17195;50.838;7.214;2024-03-06T05:07:11;21.45;;;14.52;;
30398;SDS011;17195;50.838;7.214;2024-03-06T05:09:38;21.48;;;14.80;;
30398;SDS011;17195;50.838;7.214;2024-03-06T05:12:06;27.85;;;17.30;;
30398;SDS011;17195;50.838;7.214;2024-03-06T05:14:32;25.98;;;15.73;;
30398;SDS011;17195;50.838;7.214;2024-03-06T05:16:58;27.13;;;16.27;;
30398;SDS011;17195;50.838;7.214;2024-03-06T05:19:23;27.40;;;16.50;;
30398;SDS011;17195;50.838;7.214;2024-03-06T05:21:55;28.85;;;17.48;;
30398;SDS011;17195;50.838;7.214;2024-03-06T05:24:20;30.52;;;17.60;;
30398;SDS011;17195;50.838;7.214;2024-03-06T05:26:46;30.23;;;17.13;;
30398;SDS011;17195;50.838;7.214;2024-03-06T05:29:12;28.70;;;17.75;;
30398;SDS011;17195;50.838;7.214;2024-03-06T05:31:37;35.70;;;19.75;;
30398;SDS011;17195;50.838;7.214;2024-03-06T05:34:03;38.63;;;19.77;;
30398;SDS011;17195;50.838;7.214;2024-03-06T05:36:30;37.45;;;20.60;;
30398;SDS011;17195;50.838;7.214;2024-03-06T05:38:55;35.53;;;20.85;;
30398;SDS011;17195;50.838;7.214;2024-03-06T05:41:21;37.88;;;20.95;;
30398;SDS011;17195;50.838;7.214;2024-03-06T05:43:46;33.30;;;19.98;;
30398;SDS011;17195;50.838;7.214;2024-03-06T05:46:12;30.65;;;18.95;;
30398;SDS011;17195;50.838;7.214;2024-03-06T05:48:38;33.80;;;20.30;;
30398;SDS011;17195;50.838;7.214;2024-03-06T05:51:04;33.90;;;20.27;;
30398;SDS011;17195;50.838;7.214;2024-03-06T05:53:30;29.17;;;19.02;;
30398;SDS011;17195;50.838;7.214;2024-03-06T05:56:06;26.52;;;17.45;;
30398;SDS011;17195;50.838;7.214;2024-03-06T05:58:31;28.50;;;18.73;;
30398;SDS011;17195;50.838;7.214;2024-03-06T06:00:57;28.38;;;17.45;;
30398;SDS011;17195;50.838;7.214;2024-03-06T06:03:23;24.42;;;16.52;;
30398;SDS011;17195;50.838;7.214;2024-03-06T06:05:48;23.35;;;16.48;;
30398;SDS011;17195;50.838;7.214;2024-03-06T06:08:14;23.20;;;16.40;;
30398;SDS011;17195;50.838;7.214;2024-03-06T06:10:39;24.73;;;16.90;;
30398;SDS011;17195;50.838;7.214;2024-03-06T06:13:05;24.05;;;16.58;;
30398;SDS011;17195;50.838;7.214;2024-03-06T06:15:30;21.48;;;15.02;;
30398;SDS011;17195;50.838;7.214;2024-03-06T06:17:56;20.55;;;13.32;;
30398;SDS011;17195;50.838;7.214;2024-03-06T06:20:22;17.40;;;13.43;;
30398;SDS011;17195;50.838;7.214;2024-03-06T06:22:49;17.40;;;12.70;;
30398;SDS011;17195;50.838;7.214;2024-03-06T06:25:14;18.98;;;13.57;;
30398;SDS011;17195;50.838;7.214;2024-03-06T06:27:41;16.88;;;13.10;;
30398;SDS011;17195;50.838;7.214;2024-03-06T06:30:07;15.05;;;11.93;;
30398;SDS011;17195;50.838;7.214;2024-03-06T06:32:36;19.30;;;14.15;;
30398;SDS011;17195;50.838;7.214;2024-03-06T06:35:03;18.98;;;13.05;;
30398;SDS011;17195;50.838;7.214;2024-03-06T06:37:30;19.55;;;13.52;;
30398;SDS011;17195;50.838;7.214;2024-03-06T06:39:55;18.05;;;13.35;;
30398;SDS011;17195;50.838;7.214;2024-03-06T06:42:21;20.50;;;14.10;;
30398;SDS011;17195;50.838;7.214;2024-03-06T06:44:47;27.25;;;13.27;;
30398;SDS011;17195;50.838;7.214;2024-03-06T06:47:12;16.63;;;12.15;;
30398;SDS011;17195;50.838;7.214;2024-03-06T06:49:38;16.60;;;12.32;;
30398;SDS011;17195;50.838;7.214;2024-03-06T06:52:03;18.77;;;13.40;;
30398;SDS011;17195;50.838;7.214;2024-03-06T06:54:29;16.02;;;12.07;;
30398;SDS011;17195;50.838;7.214;2024-03-06T06:56:54;14.52;;;11.05;;
30398;SDS011;17195;50.838;7.214;2024-03-06T06:59:20;15.55;;;11.70;;
30398;SDS011;17195;50.838;7.214;2024-03-06T07:01:47;39.88;;;11.75;;
30398;SDS011;17195;50.838;7.214;2024-03-06T07:04:13;15.95;;;11.00;;
30398;SDS011;17195;50.838;7.214;2024-03-06T07:06:41;15.10;;;11.35;;
30398;SDS011;17195;50.838;7.214;2024-03-06T07:09:07;13.73;;;10.40;;
30398;SDS011;17195;50.838;7.214;2024-03-06T07:11:34;12.88;;;9.68;;
30398;SDS011;17195;50.838;7.214;2024-03-06T07:13:59;12.90;;;9.57;;
30398;SDS011;17195;50.838;7.214;2024-03-06T07:16:25;11.75;;;9.32;;
30398;SDS011;17195;50.838;7.214;2024-03-06T07:18:51;13.60;;;9.85;;
30398;SDS011;17195;50.838;7.214;2024-03-06T07:21:16;15.05;;;8.38;;
30398;SDS011;17195;50.838;7.214;2024-03-06T07:23:42;9.73;;;8.27;;
30398;SDS011;17195;50.838;7.214;2024-03-06T07:26:09;10.35;;;8.27;;
30398;SDS011;17195;50.838;7.214;2024-03-06T07:28:35;10.05;;;8.32;;
30398;SDS011;17195;50.838;7.214;2024-03-06T07:31:02;10.57;;;8.93;;
30398;SDS011;17195;50.838;7.214;2024-03-06T07:33:28;11.00;;;8.93;;
30398;SDS011;17195;50.838;7.214;2024-03-06T07:35:53;11.15;;;8.95;;
30398;SDS011;17195;50.838;7.214;2024-03-06T07:38:19;9.70;;;7.80;;
30398;SDS011;17195;50.838;7.214;2024-03-06T07:40:45;11.70;;;9.13;;
30398;SDS011;17195;50.838;7.214;2024-03-06T07:43:11;9.70;;;8.23;;
30398;SDS011;17195;50.838;7.214;2024-03-06T07:45:38;10.73;;;8.45;;
30398;SDS011;17195;50.838;7.214;2024-03-06T07:48:04;9.40;;;7.63;;
30398;SDS011;17195;50.838;7.214;2024-03-06T07:50:30;11.18;;;8.73;;
30398;SDS011;17195;50.838;7.214;2024-03-06T07:52:55;10.48;;;8.77;;
30398;SDS011;17195;50.838;7.214;2024-03-06T07:55:21;11.55;;;9.70;;
30398;SDS011;17195;50.838;7.214;2024-03-06T07:57:47;12.07;;;9.20;;
30398;SDS011;17195;50.838;7.214;2024-03-06T08:00:13;10.25;;;8.68;;
30398;SDS011;17195;50.838;7.214;2024-03-06T08:02:40;9.80;;;8.20;;
30398;SDS011;17195;50.838;7.214;2024-03-06T08:05:11;10.57;;;8.75;;
30398;SDS011;17195;50.838;7.214;2024-03-06T08:07:39;11.80;;;9.55;;
30398;SDS011;17195;50.838;7.214;2024-03-06T08:10:10;10.98;;;8.77;;
30398;SDS011;17195;50.838;7.214;2024-03-06T08:12:42;11.55;;;8.85;;
30398;SDS011;17195;50.838;7.214;2024-03-06T08:15:13;10.25;;;8.07;;
30398;SDS011;17195;50.838;7.214;2024-03-06T08:17:39;14.70;;;9.82;;
30398;SDS011;17195;50.838;7.214;2024-03-06T08:20:07;11.52;;;9.20;;
30398;SDS011;17195;50.838;7.214;2024-03-06T08:22:37;12.70;;;10.30;;
30398;SDS011;17195;50.838;7.214;2024-03-06T08:27:34;18.35;;;12.07;;
30398;SDS011;17195;50.838;7.214;2024-03-06T08:30:01;16.95;;;11.77;;
30398;SDS011;17195;50.838;7.214;2024-03-06T08:32:33;19.55;;;13.02;;
30398;SDS011;17195;50.838;7.214;2024-03-06T08:35:03;15.13;;;11.93;;
30398;SDS011;17195;50.838;7.214;2024-03-06T08:37:33;18.33;;;11.88;;
30398;SDS011;17195;50.838;7.214;2024-03-06T08:39:59;17.45;;;11.60;;
30398;SDS011;17195;50.838;7.214;2024-03-06T08:42:25;14.68;;;10.73;;
30398;SDS011;17195;50.838;7.214;2024-03-06T08:44:52;16.20;;;10.85;;
30398;SDS011;17195;50.838;7.214;2024-03-06T08:47:17;13.90;;;11.15;;
30398;SDS011;17195;50.838;7.214;2024-03-06T08:49:43;12.98;;;10.93;;
30398;SDS011;17195;50.838;7.214;2024-03-06T08:52:09;13.27;;;10.40;;
30398;SDS011;17195;50.838;7.214;2024-03-06T08:54:35;11.57;;;9.98;;
30398;SDS011;17195;50.838;7.214;2024-03-06T08:57:01;11.90;;;9.77;;
30398;SDS011;17195;50.838;7.214;2024-03-06T08:59:27;12.68;;;9.60;;
30398;SDS011;17195;50.838;7.214;2024-03-06T09:01:54;13.98;;;9.73;;
30398;SDS011;17195;50.838;7.214;2024-03-06T09:04:20;9.55;;;8.40;;
30398;SDS011;17195;50.838;7.214;2024-03-06T09:06:47;10.88;;;9.20;;
30398;SDS011;17195;50.838;7.214;2024-03-06T09:09:14;11.13;;;9.05;;
30398;SDS011;17195;50.838;7.214;2024-03-06T09:11:40;8.02;;;7.20;;
30398;SDS011;17195;50.838;7.214;2024-03-06T09:14:07;10.25;;;7.65;;
30398;SDS011;17195;50.838;7.214;2024-03-06T09:16:34;11.48;;;7.95;;
30398;SDS011;17195;50.838;7.214;2024-03-06T09:19:00;10.68;;;8.02;;
30398;SDS011;17195;50.838;7.214;2024-03-06T09:21:25;10.50;;;6.80;;
30398;SDS011;17195;50.838;7.214;2024-03-06T09:23:51;9.45;;;7.10;;
30398;SDS011;17195;50.838;7.214;2024-03-06T09:26:16;7.30;;;6.10;;
30398;SDS011;17195;50.838;7.214;2024-03-06T09:28:42;8.45;;;6.72;;
30398;SDS011;17195;50.838;7.214;2024-03-06T09:31:08;7.22;;;6.13;;
30398;SDS011;17195;50.838;7.214;2024-03-06T09:33:33;8.38;;;5.68;;
30398;SDS011;17195;50.838;7.214;2024-03-06T09:35:59;9.07;;;5.90;;
30398;SDS011;17195;50.838;7.214;2024-03-06T09:38:25;11.32;;;6.50;;
30398;SDS011;17195;50.838;7.214;2024-03-06T09:40:50;9.98;;;6.35;;
30398;SDS011;17195;50.838;7.214;2024-03-06T09:43:17;8.68;;;6.47;;
30398;SDS011;17195;50.838;7.214;2024-03-06T09:45:44;7.28;;;6.25;;
30398;SDS011;17195;50.838;7.214;2024-03-06T09:48:13;10.07;;;7.20;;
30398;SDS011;17195;50.838;7.214;2024-03-06T09:50:38;11.13;;;7.38;;
30398;SDS011;17195;50.838;7.214;2024-03-06T09:53:10;11.70;;;7.85;;
30398;SDS011;17195;50.838;7.214;2024-03-06T09:55:39;11.63;;;9.07;;
30398;SDS011;17195;50.838;7.214;2024-03-06T09:58:06;14.82;;;10.50;;
30398;SDS011;17195;50.838;7.214;2024-03-06T10:00:33;14.85;;;9.85;;
30398;SDS011;17195;50.838;7.214;2024-03-06T10:03:00;16.23;;;11.13;;
30398;SDS011;17195;50.838;7.214;2024-03-06T10:05:30;17.23;;;12.20;;
30398;SDS011;17195;50.838;7.214;2024-03-06T10:07:57;18.30;;;11.73;;
30398;SDS011;17195;50.838;7.214;2024-03-06T10:10:24;17.42;;;12.18;;
30398;SDS011;17195;50.838;7.214;2024-03-06T10:12:50;17.75;;;12.32;;
30398;SDS011;17195;50.838;7.214;2024-03-06T10:15:15;18.80;;;12.48;;
30398;SDS011;17195;50.838;7.214;2024-03-06T10:17:41;19.23;;;12.55;;
30398;SDS011;17195;50.838;7.214;2024-03-06T10:20:16;17.92;;;12.52;;
30398;SDS011;17195;50.838;7.214;2024-03-06T10:22:47;17.55;;;12.77;;
30398;SDS011;17195;50.838;7.214;2024-03-06T10:25:20;15.82;;;11.82;;
30398;SDS011;17195;50.838;7.214;2024-03-06T10:28:07;20.17;;;13.80;;
30398;SDS011;17195;50.838;7.214;2024-03-06T10:30:33;18.88;;;13.25;;
30398;SDS011;17195;50.838;7.214;2024-03-06T10:33:01;17.73;;;12.73;;
30398;SDS011;17195;50.838;7.214;2024-03-06T10:35:28;17.95;;;12.13;;
30398;SDS011;17195;50.838;7.214;2024-03-06T10:37:54;20.48;;;13.75;;
30398;SDS011;17195;50.838;7.214;2024-03-06T10:40:20;20.67;;;14.85;;
30398;SDS011;17195;50.838;7.214;2024-03-06T10:42:47;17.83;;;13.38;;
30398;SDS011;17195;50.838;7.214;2024-03-06T10:45:14;21.15;;;13.82;;
30398;SDS011;17195;50.838;7.214;2024-03-06T10:47:41;20.67;;;14.35;;
30398;SDS011;17195;50.838;7.214;2024-03-06T10:50:13;22.35;;;14.23;;
30398;SDS011;17195;50.838;7.214;2024-03-06T10:52:40;27.65;;;13.45;;
30398;SDS011;17195;50.838;7.214;2024-03-06T10:55:06;19.55;;;13.27;;
30398;SDS011;17195;50.838;7.214;2024-03-06T10:57:35;20.58;;;13.88;;
30398;SDS011;17195;50.838;7.214;2024-03-06T11:00:02;20.13;;;14.27;;
30398;SDS011;17195;50.838;7.214;2024-03-06T11:02:28;20.98;;;15.18;;
30398;SDS011;17195;50.838;7.214;2024-03-06T11:04:54;23.23;;;15.73;;
30398;SDS011;17195;50.838;7.214;2024-03-06T11:07:20;30.42;;;16.75;;
30398;SDS011;17195;50.838;7.214;2024-03-06T11:09:46;21.63;;;15.43;;
30398;SDS011;17195;50.838;7.214;2024-03-06T11:12:31;21.45;;;15.18;;
30398;SDS011;17195;50.838;7.214;2024-03-06T11:14:57;22.95;;;15.43;;
30398;SDS011;17195;50.838;7.214;2024-03-06T11:17:26;22.23;;;15.13;;
30398;SDS011;17195;50.838;7.214;2024-03-06T11:28:21;20.60;;;14.27;;
30398;SDS011;17195;50.838;7.214;2024-03-06T11:31:07;22.30;;;15.57;;
30398;SDS011;17195;50.838;7.214;2024-03-06T11:33:52;20.55;;;14.82;;
30398;SDS011;17195;50.838;7.214;2024-03-06T11:38:52;19.02;;;13.40;;
30398;SDS011;17195;50.838;7.214;2024-03-06T11:41:30;19.08;;;13.25;;
30398;SDS011;17195;50.838;7.214;2024-03-06T11:44:18;19.45;;;13.65;;
30398;SDS011;17195;50.838;7.214;2024-03-06T11:49:28;18.50;;;13.13;;
30398;SDS011;17195;50.838;7.214;2024-03-06T11:51:59;17.00;;;12.93;;
30398;SDS011;17195;50.838;7.214;2024-03-06T11:54:25;20.20;;;14.02;;
30398;SDS011;17195;50.838;7.214;2024-03-06T11:56:52;16.92;;;12.45;;
30398;SDS011;17195;50.838;7.214;2024-03-06T12:01:54;17.85;;;13.27;;
30398;SDS011;17195;50.838;7.214;2024-03-06T12:04:21;17.48;;;12.82;;
30398;SDS011;17195;50.838;7.214;2024-03-06T12:06:47;15.93;;;12.18;;
30398;SDS011;17195;50.838;7.214;2024-03-06T12:09:13;16.55;;;11.50;;
30398;SDS011;17195;50.838;7.214;2024-03-06T12:11:40;13.82;;;10.98;;
30398;SDS011;17195;50.838;7.214;2024-03-06T12:14:08;15.43;;;10.63;;
30398;SDS011;17195;50.838;7.214;2024-03-06T12:16:37;16.60;;;12.20;;
30398;SDS011;17195;50.838;7.214;2024-03-06T12:19:03;14.00;;;10.38;;
30398;SDS011;17195;50.838;7.214;2024-03-06T12:21:33;14.98;;;10.57;;
30398;SDS011;17195;50.838;7.214;2024-03-06T12:24:05;14.45;;;9.70;;
30398;SDS011;17195;50.838;7.214;2024-03-06T12:26:32;13.25;;;9.57;;
30398;SDS011;17195;50.838;7.214;2024-03-06T12:29:07;14.00;;;10.43;;
30398;SDS011;17195;50.838;7.214;2024-03-06T12:31:35;11.68;;;8.98;;
30398;SDS011;17195;50.838;7.214;2024-03-06T12:34:02;15.65;;;9.90;;
30398;SDS011;17195;50.838;7.214;2024-03-06T12:36:29;12.63;;;7.75;;
30398;SDS011;17195;50.838;7.214;2024-03-06T12:38:56;8.73;;;6.88;;
30398;SDS011;17195;50.838;7.214;2024-03-06T12:41:24;8.25;;;5.40;;
30398;SDS011;17195;50.838;7.214;2024-03-06T12:43:51;7.57;;;5.30;;
30398;SDS011;17195;50.838;7.214;2024-03-06T12:46:17;6.85;;;4.80;;
30398;SDS011;17195;50.838;7.214;2024-03-06T12:48:42;8.75;;;6.25;;
30398;SDS011;17195;50.838;7.214;2024-03-06T12:51:08;10.10;;;6.50;;
30398;SDS011;17195;50.838;7.214;2024-03-06T12:53:33;9.48;;;6.43;;
30398;SDS011;17195;50.838;7.214;2024-03-06T12:56:00;7.60;;;5.85;;
30398;SDS011;17195;50.838;7.214;2024-03-06T12:58:25;7.70;;;4.95;;
30398;SDS011;17195;50.838;7.214;2024-03-06T13:00:51;9.02;;;6.25;;
30398;SDS011;17195;50.838;7.214;2024-03-06T13:03:17;6.93;;;4.32;;
30398;SDS011;17195;50.838;7.214;2024-03-06T13:05:43;6.22;;;4.88;;
30398;SDS011;17195;50.838;7.214;2024-03-06T13:08:09;5.18;;;3.63;;
30398;SDS011;17195;50.838;7.214;2024-03-06T13:10:38;7.43;;;5.22;;
30398;SDS011;17195;50.838;7.214;2024-03-06T13:13:05;4.53;;;3.67;;
30398;SDS011;17195;50.838;7.214;2024-03-06T13:15:31;6.53;;;4.15;;
30398;SDS011;17195;50.838;7.214;2024-03-06T13:17:59;5.68;;;4.32;;
30398;SDS011;17195;50.838;7.214;2024-03-06T13:20:25;4.68;;;4.18;;
30398;SDS011;17195;50.838;7.214;2024-03-06T13:22:50;5.25;;;4.22;;
30398;SDS011;17195;50.838;7.214;2024-03-06T13:25:16;6.65;;;4.40;;
30398;SDS011;17195;50.838;7.214;2024-03-06T13:27:41;5.38;;;4.20;;
30398;SDS011;17195;50.838;7.214;2024-03-06T13:30:07;6.05;;;3.85;;
30398;SDS011;17195;50.838;7.214;2024-03-06T13:32:33;6.82;;;4.53;;
30398;SDS011;17195;50.838;7.214;2024-03-06T13:34:58;5.88;;;4.05;;
30398;SDS011;17195;50.838;7.214;2024-03-06T13:37:24;5.97;;;4.60;;
30398;SDS011;17195;50.838;7.214;2024-03-06T13:39:49;5.50;;;4.32;;
30398;SDS011;17195;50.838;7.214;2024-03-06T13:42:15;5.35;;;4.30;;
30398;SDS011;17195;50.838;7.214;2024-03-06T13:44:41;4.40;;;3.85;;
30398;SDS011;17195;50.838;7.214;2024-03-06T13:47:06;5.68;;;4.50;;
30398;SDS011;17195;50.838;7.214;2024-03-06T13:52:05;5.18;;;3.83;;
30398;SDS011;17195;50.838;7.214;2024-03-06T13:54:33;5.10;;;4.38;;
30398;SDS011;17195;50.838;7.214;2024-03-06T13:56:59;5.57;;;4.15;;
30398;SDS011;17195;50.838;7.214;2024-03-06T13:59:28;10.30;;;4.35;;
30398;SDS011;17195;50.838;7.214;2024-03-06T14:01:55;6.28;;;5.20;;
30398;SDS011;17195;50.838;7.214;2024-03-06T14:04:21;7.50;;;5.63;;
30398;SDS011;17195;50.838;7.214;2024-03-06T14:06:47;6.85;;;5.00;;
30398;SDS011;17195;50.838;7.214;2024-03-06T14:09:13;6.47;;;4.82;;
30398;SDS011;17195;50.838;7.214;2024-03-06T14:11:39;6.38;;;4.65;;
30398;SDS011;17195;50.838;7.214;2024-03-06T14:14:05;4.85;;;3.97;;
30398;SDS011;17195;50.838;7.214;2024-03-06T14:16:31;6.32;;;3.47;;
30398;SDS011;17195;50.838;7.214;2024-03-06T14:18:56;5.45;;;4.32;;
30398;SDS011;17195;50.838;7.214;2024-03-06T14:21:22;5.90;;;4.18;;
30398;SDS011;17195;50.838;7.214;2024-03-06T14:23:48;5.65;;;3.72;;
30398;SDS011;17195;50.838;7.214;2024-03-06T14:26:14;4.47;;;3.42;;
30398;SDS011;17195;50.838;7.214;2024-03-06T14:28:41;4.45;;;3.65;;
30398;SDS011;17195;50.838;7.214;2024-03-06T14:31:06;3.97;;;3.58;;
30398;SDS011;17195;50.838;7.214;2024-03-06T14:33:32;4.65;;;3.60;;
30398;SDS011;17195;50.838;7.214;2024-03-06T14:35:58;4.15;;;3.55;;
30398;SDS011;17195;50.838;7.214;2024-03-06T14:38:24;5.65;;;4.55;;
30398;SDS011;17195;50.838;7.214;2024-03-06T14:40:50;3.95;;;2.85;;
30398;SDS011;17195;50.838;7.214;2024-03-06T14:43:15;2.70;;;1.90;;
30398;SDS011;17195;50.838;7.214;2024-03-06T14:45:42;2.65;;;1.88;;